sensor_id;sensor_type;location;lat;lon;timestamp;P1;durP1;ratioP1;P2;durP2;ratioP2
75758;SDS011;64371;47.566;19.086;2023-04-03T00:00:44;6.53;;;4.03;;
75758;SDS011;64371;47.566;19.086;2023-04-03T00:03:46;7.55;;;3.97;;
75758;SDS011;64371;47.566;19.086;2023-04-03T00:06:49;7.80;;;4.18;;
75758;SDS011;64371;47.566;19.086;2023-04-03T00:09:51;8.10;;;4.20;;
75758;SDS011;64371;47.566;19.086;2023-04-03T00:12:53;6.97;;;4.22;;
75758;SDS011;64371;47.566;19.086;2023-04-03T00:15:56;6.65;;;4.13;;
75758;SDS011;64371;47.566;19.086;2023-04-03T00:18:58;6.22;;;4.13;;
75758;SDS011;64371;47.566;19.086;2023-04-03T00:22:00;9.00;;;4.72;;
75758;SDS011;64371;47.566;19.086;2023-04-03T00:25:03;7.30;;;4.20;;
75758;SDS011;64371;47.566;19.086;2023-04-03T00:28:06;6.82;;;4.35;;
75758;SDS011;64371;47.566;19.086;2023-04-03T00:31:08;8.05;;;5.15;;
75758;SDS011;64371;47.566;19.086;2023-04-03T00:34:11;6.95;;;4.32;;
75758;SDS011;64371;47.566;19.086;2023-04-03T00:37:13;7.63;;;4.20;;
75758;SDS011;64371;47.566;19.086;2023-04-03T00:40:17;7.43;;;4.00;;
75758;SDS011;64371;47.566;19.086;2023-04-03T00:43:21;7.80;;;4.30;;
75758;SDS011;64371;47.566;19.086;2023-04-03T00:46:25;8.23;;;4.57;;
75758;SDS011;64371;47.566;19.086;2023-04-03T00:49:27;6.55;;;4.07;;
75758;SDS011;64371;47.566;19.086;2023-04-03T00:52:30;5.72;;;3.60;;
75758;SDS011;64371;47.566;19.086;2023-04-03T00:55:33;8.03;;;4.20;;
75758;SDS011;64371;47.566;19.086;2023-04-03T00:58:39;7.30;;;4.00;;
75758;SDS011;64371;47.566;19.086;2023-04-03T01:01:47;6.00;;;3.92;;
75758;SDS011;64371;47.566;19.086;2023-04-03T01:04:50;5.93;;;3.50;;
75758;SDS011;64371;47.566;19.086;2023-04-03T01:07:52;6.43;;;3.53;;
75758;SDS011;64371;47.566;19.086;2023-04-03T01:10:55;7.27;;;3.93;;
75758;SDS011;64371;47.566;19.086;2023-04-03T01:13:59;7.47;;;3.85;;
75758;SDS011;64371;47.566;19.086;2023-04-03T01:17:03;5.65;;;3.22;;
75758;SDS011;64371;47.566;19.086;2023-04-03T01:27:36;6.97;;;3.73;;
75758;SDS011;64371;47.566;19.086;2023-04-03T01:30:43;5.47;;;3.22;;
75758;SDS011;64371;47.566;19.086;2023-04-03T01:33:51;5.32;;;3.30;;
75758;SDS011;64371;47.566;19.086;2023-04-03T01:36:54;5.70;;;3.42;;
75758;SDS011;64371;47.566;19.086;2023-04-03T01:39:56;8.68;;;3.40;;
75758;SDS011;64371;47.566;19.086;2023-04-03T01:42:59;6.33;;;3.23;;
75758;SDS011;64371;47.566;19.086;2023-04-03T01:46:01;5.25;;;3.10;;
75758;SDS011;64371;47.566;19.086;2023-04-03T01:49:04;4.97;;;3.10;;
75758;SDS011;64371;47.566;19.086;2023-04-03T01:52:07;5.10;;;3.00;;
75758;SDS011;64371;47.566;19.086;2023-04-03T01:55:09;4.55;;;2.80;;
75758;SDS011;64371;47.566;19.086;2023-04-03T01:58:12;4.67;;;2.90;;
75758;SDS011;64371;47.566;19.086;2023-04-03T02:01:15;5.60;;;3.03;;
75758;SDS011;64371;47.566;19.086;2023-04-03T02:04:18;4.88;;;2.83;;
75758;SDS011;64371;47.566;19.086;2023-04-03T02:07:20;5.75;;;3.08;;
75758;SDS011;64371;47.566;19.086;2023-04-03T02:10:22;4.85;;;3.22;;
75758;SDS011;64371;47.566;19.086;2023-04-03T02:13:25;4.67;;;2.83;;
75758;SDS011;64371;47.566;19.086;2023-04-03T02:16:27;4.50;;;2.70;;
75758;SDS011;64371;47.566;19.086;2023-04-03T02:19:30;4.88;;;2.53;;
75758;SDS011;64371;47.566;19.086;2023-04-03T02:22:33;4.55;;;2.67;;
75758;SDS011;64371;47.566;19.086;2023-04-03T02:25:36;4.30;;;2.92;;
75758;SDS011;64371;47.566;19.086;2023-04-03T02:28:39;3.83;;;2.20;;
75758;SDS011;64371;47.566;19.086;2023-04-03T02:31:43;4.72;;;2.55;;
75758;SDS011;64371;47.566;19.086;2023-04-03T02:34:45;4.10;;;2.42;;
75758;SDS011;64371;47.566;19.086;2023-04-03T02:37:49;5.35;;;2.50;;
75758;SDS011;64371;47.566;19.086;2023-04-03T02:40:51;4.60;;;2.70;;
75758;SDS011;64371;47.566;19.086;2023-04-03T02:43:53;3.97;;;2.57;;
75758;SDS011;64371;47.566;19.086;2023-04-03T02:46:56;4.22;;;2.60;;
75758;SDS011;64371;47.566;19.086;2023-04-03T02:49:58;4.03;;;2.72;;
75758;SDS011;64371;47.566;19.086;2023-04-03T02:53:00;4.55;;;2.80;;
75758;SDS011;64371;47.566;19.086;2023-04-03T02:56:03;4.28;;;2.58;;
75758;SDS011;64371;47.566;19.086;2023-04-03T02:59:05;4.87;;;2.63;;
75758;SDS011;64371;47.566;19.086;2023-04-03T03:02:10;4.38;;;2.70;;
75758;SDS011;64371;47.566;19.086;2023-04-03T03:05:13;4.07;;;2.60;;
75758;SDS011;64371;47.566;19.086;2023-04-03T03:08:15;4.72;;;2.50;;
75758;SDS011;64371;47.566;19.086;2023-04-03T03:11:22;6.00;;;2.60;;
75758;SDS011;64371;47.566;19.086;2023-04-03T03:14:24;3.77;;;2.10;;
75758;SDS011;64371;47.566;19.086;2023-04-03T03:17:29;4.22;;;2.53;;
75758;SDS011;64371;47.566;19.086;2023-04-03T03:20:32;4.38;;;2.72;;
75758;SDS011;64371;47.566;19.086;2023-04-03T03:23:34;4.50;;;2.60;;
75758;SDS011;64371;47.566;19.086;2023-04-03T03:26:36;4.50;;;2.55;;
75758;SDS011;64371;47.566;19.086;2023-04-03T03:29:39;4.70;;;2.73;;
75758;SDS011;64371;47.566;19.086;2023-04-03T03:32:41;5.05;;;2.75;;
75758;SDS011;64371;47.566;19.086;2023-04-03T03:35:44;10.70;;;2.83;;
75758;SDS011;64371;47.566;19.086;2023-04-03T03:38:47;4.82;;;2.80;;
75758;SDS011;64371;47.566;19.086;2023-04-03T03:41:49;4.45;;;2.80;;
75758;SDS011;64371;47.566;19.086;2023-04-03T03:44:51;5.63;;;3.03;;
75758;SDS011;64371;47.566;19.086;2023-04-03T03:47:54;6.43;;;3.28;;
75758;SDS011;64371;47.566;19.086;2023-04-03T03:50:57;5.10;;;2.83;;
75758;SDS011;64371;47.566;19.086;2023-04-03T03:54:04;6.45;;;3.85;;
75758;SDS011;64371;47.566;19.086;2023-04-03T03:57:07;5.90;;;3.13;;
75758;SDS011;64371;47.566;19.086;2023-04-03T04:00:10;5.17;;;2.77;;
75758;SDS011;64371;47.566;19.086;2023-04-03T04:03:16;6.03;;;3.20;;
75758;SDS011;64371;47.566;19.086;2023-04-03T04:06:21;5.10;;;2.90;;
75758;SDS011;64371;47.566;19.086;2023-04-03T04:09:25;28.83;;;10.18;;
75758;SDS011;64371;47.566;19.086;2023-04-03T04:12:27;92.55;;;24.98;;
75758;SDS011;64371;47.566;19.086;2023-04-03T04:15:30;77.00;;;20.13;;
75758;SDS011;64371;47.566;19.086;2023-04-03T04:18:36;47.80;;;16.42;;
75758;SDS011;64371;47.566;19.086;2023-04-03T04:21:39;31.98;;;13.50;;
75758;SDS011;64371;47.566;19.086;2023-04-03T04:24:42;16.45;;;8.30;;
75758;SDS011;64371;47.566;19.086;2023-04-03T04:27:45;8.07;;;4.25;;
75758;SDS011;64371;47.566;19.086;2023-04-03T04:30:49;6.63;;;4.00;;
75758;SDS011;64371;47.566;19.086;2023-04-03T04:33:53;7.35;;;4.15;;
75758;SDS011;64371;47.566;19.086;2023-04-03T04:36:56;6.30;;;3.72;;
75758;SDS011;64371;47.566;19.086;2023-04-03T04:40:00;6.95;;;3.67;;
75758;SDS011;64371;47.566;19.086;2023-04-03T04:43:03;10.23;;;3.60;;
75758;SDS011;64371;47.566;19.086;2023-04-03T04:46:07;7.53;;;3.43;;
75758;SDS011;64371;47.566;19.086;2023-04-03T04:49:16;7.40;;;4.22;;
75758;SDS011;64371;47.566;19.086;2023-04-03T04:52:19;6.65;;;3.97;;
75758;SDS011;64371;47.566;19.086;2023-04-03T04:55:24;8.38;;;4.65;;
75758;SDS011;64371;47.566;19.086;2023-04-03T04:58:26;11.07;;;6.00;;
75758;SDS011;64371;47.566;19.086;2023-04-03T05:01:29;8.10;;;4.53;;
75758;SDS011;64371;47.566;19.086;2023-04-03T05:04:57;7.03;;;4.63;;
75758;SDS011;64371;47.566;19.086;2023-04-03T05:08:03;10.23;;;4.40;;
75758;SDS011;64371;47.566;19.086;2023-04-03T05:11:06;9.45;;;5.40;;
75758;SDS011;64371;47.566;19.086;2023-04-03T05:14:09;14.15;;;7.07;;
75758;SDS011;64371;47.566;19.086;2023-04-03T05:17:11;13.13;;;6.33;;
75758;SDS011;64371;47.566;19.086;2023-04-03T05:20:18;11.70;;;5.60;;
75758;SDS011;64371;47.566;19.086;2023-04-03T05:23:22;7.78;;;4.43;;
75758;SDS011;64371;47.566;19.086;2023-04-03T05:26:25;26.73;;;14.85;;
75758;SDS011;64371;47.566;19.086;2023-04-03T05:29:28;9.52;;;4.95;;
75758;SDS011;64371;47.566;19.086;2023-04-03T05:32:33;6.17;;;3.50;;
75758;SDS011;64371;47.566;19.086;2023-04-03T05:35:50;6.45;;;3.65;;
75758;SDS011;64371;47.566;19.086;2023-04-03T05:38:58;5.13;;;3.22;;
75758;SDS011;64371;47.566;19.086;2023-04-03T05:42:01;6.30;;;3.60;;
75758;SDS011;64371;47.566;19.086;2023-04-03T05:45:04;6.13;;;3.55;;
75758;SDS011;64371;47.566;19.086;2023-04-03T05:48:07;6.63;;;3.27;;
75758;SDS011;64371;47.566;19.086;2023-04-03T05:51:14;6.38;;;3.92;;
75758;SDS011;64371;47.566;19.086;2023-04-03T05:54:24;6.80;;;3.70;;
75758;SDS011;64371;47.566;19.086;2023-04-03T05:57:35;7.60;;;3.92;;
75758;SDS011;64371;47.566;19.086;2023-04-03T06:00:39;5.85;;;3.80;;
75758;SDS011;64371;47.566;19.086;2023-04-03T06:03:45;6.73;;;3.73;;
75758;SDS011;64371;47.566;19.086;2023-04-03T06:06:52;6.20;;;3.78;;
75758;SDS011;64371;47.566;19.086;2023-04-03T06:09:56;5.15;;;3.20;;
75758;SDS011;64371;47.566;19.086;2023-04-03T06:12:59;7.15;;;3.70;;
75758;SDS011;64371;47.566;19.086;2023-04-03T06:16:01;7.60;;;4.57;;
75758;SDS011;64371;47.566;19.086;2023-04-03T06:19:06;13.50;;;6.60;;
75758;SDS011;64371;47.566;19.086;2023-04-03T06:22:16;6.25;;;4.00;;
75758;SDS011;64371;47.566;19.086;2023-04-03T06:25:20;4.80;;;3.00;;
75758;SDS011;64371;47.566;19.086;2023-04-03T06:28:23;4.68;;;3.00;;
75758;SDS011;64371;47.566;19.086;2023-04-03T06:31:27;4.30;;;2.47;;
75758;SDS011;64371;47.566;19.086;2023-04-03T06:34:30;4.50;;;2.50;;
75758;SDS011;64371;47.566;19.086;2023-04-03T06:37:33;3.67;;;1.83;;
75758;SDS011;64371;47.566;19.086;2023-04-03T06:40:35;3.58;;;1.95;;
75758;SDS011;64371;47.566;19.086;2023-04-03T06:43:38;3.47;;;2.03;;
75758;SDS011;64371;47.566;19.086;2023-04-03T06:46:41;3.28;;;1.83;;
75758;SDS011;64371;47.566;19.086;2023-04-03T06:49:44;3.47;;;1.97;;
75758;SDS011;64371;47.566;19.086;2023-04-03T06:52:49;30.05;;;10.68;;
75758;SDS011;64371;47.566;19.086;2023-04-03T06:55:51;9.48;;;3.78;;
75758;SDS011;64371;47.566;19.086;2023-04-03T06:58:54;3.30;;;2.00;;
75758;SDS011;64371;47.566;19.086;2023-04-03T07:01:59;4.57;;;2.00;;
75758;SDS011;64371;47.566;19.086;2023-04-03T07:05:02;3.63;;;2.03;;
75758;SDS011;64371;47.566;19.086;2023-04-03T07:08:04;2.70;;;1.80;;
75758;SDS011;64371;47.566;19.086;2023-04-03T07:11:07;5.07;;;2.40;;
75758;SDS011;64371;47.566;19.086;2023-04-03T07:14:12;6.20;;;3.85;;
75758;SDS011;64371;47.566;19.086;2023-04-03T07:17:15;2.80;;;1.80;;
75758;SDS011;64371;47.566;19.086;2023-04-03T07:20:20;4.03;;;1.87;;
75758;SDS011;64371;47.566;19.086;2023-04-03T07:23:25;13.13;;;5.32;;
75758;SDS011;64371;47.566;19.086;2023-04-03T07:26:28;7.72;;;4.50;;
75758;SDS011;64371;47.566;19.086;2023-04-03T07:29:31;4.18;;;1.88;;
75758;SDS011;64371;47.566;19.086;2023-04-03T07:32:33;2.95;;;1.50;;
75758;SDS011;64371;47.566;19.086;2023-04-03T07:35:35;2.03;;;1.30;;
75758;SDS011;64371;47.566;19.086;2023-04-03T07:38:38;2.67;;;1.27;;
75758;SDS011;64371;47.566;19.086;2023-04-03T07:41:41;3.33;;;1.40;;
75758;SDS011;64371;47.566;19.086;2023-04-03T07:44:43;2.20;;;1.00;;
75758;SDS011;64371;47.566;19.086;2023-04-03T07:47:46;1.83;;;1.10;;
75758;SDS011;64371;47.566;19.086;2023-04-03T07:50:49;2.33;;;1.70;;
75758;SDS011;64371;47.566;19.086;2023-04-03T07:53:52;1.73;;;1.20;;
75758;SDS011;64371;47.566;19.086;2023-04-03T07:56:54;2.65;;;1.05;;
75758;SDS011;64371;47.566;19.086;2023-04-03T07:59:57;3.50;;;1.85;;
75758;SDS011;64371;47.566;19.086;2023-04-03T08:02:59;2.17;;;1.60;;
75758;SDS011;64371;47.566;19.086;2023-04-03T08:06:05;4.03;;;1.73;;
75758;SDS011;64371;47.566;19.086;2023-04-03T08:09:16;2.67;;;1.35;;
75758;SDS011;64371;47.566;19.086;2023-04-03T08:12:19;3.05;;;1.60;;
75758;SDS011;64371;47.566;19.086;2023-04-03T08:15:21;2.25;;;1.08;;
75758;SDS011;64371;47.566;19.086;2023-04-03T08:18:24;2.13;;;1.52;;
75758;SDS011;64371;47.566;19.086;2023-04-03T08:21:27;3.83;;;1.83;;
75758;SDS011;64371;47.566;19.086;2023-04-03T08:24:30;1.80;;;1.30;;
75758;SDS011;64371;47.566;19.086;2023-04-03T08:27:33;1.60;;;1.30;;
75758;SDS011;64371;47.566;19.086;2023-04-03T08:30:38;1.95;;;1.10;;
75758;SDS011;64371;47.566;19.086;2023-04-03T08:33:42;2.15;;;1.35;;
75758;SDS011;64371;47.566;19.086;2023-04-03T08:36:45;2.40;;;1.40;;
75758;SDS011;64371;47.566;19.086;2023-04-03T08:39:48;2.03;;;1.10;;
75758;SDS011;64371;47.566;19.086;2023-04-03T08:45:59;1.70;;;1.10;;
75758;SDS011;64371;47.566;19.086;2023-04-03T08:49:04;1.63;;;0.80;;
75758;SDS011;64371;47.566;19.086;2023-04-03T08:52:35;2.00;;;1.30;;
75758;SDS011;64371;47.566;19.086;2023-04-03T08:55:42;2.13;;;1.60;;
75758;SDS011;64371;47.566;19.086;2023-04-03T08:58:49;3.65;;;1.40;;
75758;SDS011;64371;47.566;19.086;2023-04-03T09:01:58;1.83;;;1.05;;
75758;SDS011;64371;47.566;19.086;2023-04-03T09:05:09;1.70;;;1.00;;
75758;SDS011;64371;47.566;19.086;2023-04-03T09:08:25;1.40;;;1.03;;
75758;SDS011;64371;47.566;19.086;2023-04-03T09:14:36;1.67;;;1.33;;
75758;SDS011;64371;47.566;19.086;2023-04-03T09:21:20;2.55;;;1.52;;
75758;SDS011;64371;47.566;19.086;2023-04-03T09:24:48;4.20;;;1.47;;
75758;SDS011;64371;47.566;19.086;2023-04-03T09:27:58;1.88;;;1.20;;
75758;SDS011;64371;47.566;19.086;2023-04-03T09:31:01;2.75;;;2.08;;
75758;SDS011;64371;47.566;19.086;2023-04-03T09:34:35;2.78;;;1.50;;
75758;SDS011;64371;47.566;19.086;2023-04-03T09:37:42;2.80;;;1.40;;
75758;SDS011;64371;47.566;19.086;2023-04-03T09:40:50;2.73;;;1.20;;
75758;SDS011;64371;47.566;19.086;2023-04-03T09:44:24;1.77;;;1.25;;
75758;SDS011;64371;47.566;19.086;2023-04-03T09:47:35;1.50;;;1.00;;
75758;SDS011;64371;47.566;19.086;2023-04-03T09:54:26;2.22;;;1.00;;
75758;SDS011;64371;47.566;19.086;2023-04-03T09:57:33;3.07;;;1.80;;
75758;SDS011;64371;47.566;19.086;2023-04-03T10:00:37;1.52;;;1.00;;
75758;SDS011;64371;47.566;19.086;2023-04-03T10:03:42;1.50;;;1.10;;
75758;SDS011;64371;47.566;19.086;2023-04-03T10:06:49;1.83;;;0.73;;
75758;SDS011;64371;47.566;19.086;2023-04-03T10:09:57;1.58;;;0.80;;
75758;SDS011;64371;47.566;19.086;2023-04-03T10:13:06;1.30;;;0.60;;
75758;SDS011;64371;47.566;19.086;2023-04-03T10:16:44;1.10;;;0.70;;
75758;SDS011;64371;47.566;19.086;2023-04-03T10:20:02;1.13;;;0.77;;
75758;SDS011;64371;47.566;19.086;2023-04-03T10:23:28;1.48;;;0.60;;
75758;SDS011;64371;47.566;19.086;2023-04-03T10:27:06;0.50;;;0.30;;
75758;SDS011;64371;47.566;19.086;2023-04-03T10:30:19;1.57;;;0.90;;
75758;SDS011;64371;47.566;19.086;2023-04-03T10:33:44;1.13;;;0.80;;
75758;SDS011;64371;47.566;19.086;2023-04-03T10:43:20;1.33;;;0.80;;
75758;SDS011;64371;47.566;19.086;2023-04-03T10:46:28;1.60;;;0.93;;
75758;SDS011;64371;47.566;19.086;2023-04-03T10:53:03;5.05;;;2.20;;
75758;SDS011;64371;47.566;19.086;2023-04-03T10:56:19;3.58;;;2.08;;
75758;SDS011;64371;47.566;19.086;2023-04-03T10:59:32;0.93;;;0.45;;
75758;SDS011;64371;47.566;19.086;2023-04-03T11:02:39;3.33;;;1.53;;
75758;SDS011;64371;47.566;19.086;2023-04-03T11:05:48;4.18;;;2.20;;
75758;SDS011;64371;47.566;19.086;2023-04-03T11:08:57;1.42;;;0.88;;
75758;SDS011;64371;47.566;19.086;2023-04-03T11:15:47;1.17;;;0.70;;
75758;SDS011;64371;47.566;19.086;2023-04-03T11:19:02;0.97;;;0.70;;
75758;SDS011;64371;47.566;19.086;2023-04-03T11:22:16;2.47;;;1.60;;
75758;SDS011;64371;47.566;19.086;2023-04-03T11:25:21;1.42;;;0.90;;
75758;SDS011;64371;47.566;19.086;2023-04-03T11:28:25;2.85;;;1.60;;
75758;SDS011;64371;47.566;19.086;2023-04-03T11:31:32;1.15;;;0.60;;
75758;SDS011;64371;47.566;19.086;2023-04-03T11:34:45;2.67;;;1.80;;
75758;SDS011;64371;47.566;19.086;2023-04-03T11:37:52;2.85;;;0.90;;
75758;SDS011;64371;47.566;19.086;2023-04-03T11:40:55;1.48;;;0.60;;
75758;SDS011;64371;47.566;19.086;2023-04-03T11:44:04;2.70;;;0.73;;
75758;SDS011;64371;47.566;19.086;2023-04-03T11:51:37;1.17;;;0.60;;
75758;SDS011;64371;47.566;19.086;2023-04-03T12:01:01;1.30;;;0.52;;
75758;SDS011;64371;47.566;19.086;2023-04-03T12:04:07;1.98;;;0.60;;
75758;SDS011;64371;47.566;19.086;2023-04-03T12:07:16;2.10;;;1.03;;
75758;SDS011;64371;47.566;19.086;2023-04-03T12:10:20;3.00;;;1.13;;
75758;SDS011;64371;47.566;19.086;2023-04-03T12:13:33;2.05;;;1.10;;
75758;SDS011;64371;47.566;19.086;2023-04-03T12:16:58;1.67;;;0.95;;
75758;SDS011;64371;47.566;19.086;2023-04-03T12:20:01;0.82;;;0.57;;
75758;SDS011;64371;47.566;19.086;2023-04-03T12:27:34;1.80;;;1.00;;
75758;SDS011;64371;47.566;19.086;2023-04-03T12:30:43;1.50;;;0.68;;
75758;SDS011;64371;47.566;19.086;2023-04-03T12:40:48;2.50;;;1.03;;
75758;SDS011;64371;47.566;19.086;2023-04-03T12:47:33;1.38;;;0.50;;
75758;SDS011;64371;47.566;19.086;2023-04-03T12:50:40;1.40;;;0.60;;
75758;SDS011;64371;47.566;19.086;2023-04-03T12:53:43;1.67;;;0.70;;
75758;SDS011;64371;47.566;19.086;2023-04-03T12:56:49;1.90;;;1.03;;
75758;SDS011;64371;47.566;19.086;2023-04-03T12:59:52;2.45;;;0.60;;
75758;SDS011;64371;47.566;19.086;2023-04-03T13:02:56;1.00;;;0.63;;
75758;SDS011;64371;47.566;19.086;2023-04-03T13:06:02;0.80;;;0.60;;
75758;SDS011;64371;47.566;19.086;2023-04-03T13:09:06;1.00;;;0.60;;
75758;SDS011;64371;47.566;19.086;2023-04-03T13:12:28;1.07;;;0.70;;
75758;SDS011;64371;47.566;19.086;2023-04-03T13:15:41;1.05;;;0.55;;
75758;SDS011;64371;47.566;19.086;2023-04-03T13:18:52;1.15;;;0.80;;
75758;SDS011;64371;47.566;19.086;2023-04-03T13:22:01;0.80;;;0.55;;
75758;SDS011;64371;47.566;19.086;2023-04-03T13:25:08;0.68;;;0.35;;
75758;SDS011;64371;47.566;19.086;2023-04-03T13:28:19;1.23;;;0.60;;
75758;SDS011;64371;47.566;19.086;2023-04-03T13:31:28;1.70;;;0.80;;
75758;SDS011;64371;47.566;19.086;2023-04-03T13:34:51;2.28;;;0.50;;
75758;SDS011;64371;47.566;19.086;2023-04-03T13:37:55;1.05;;;0.63;;
75758;SDS011;64371;47.566;19.086;2023-04-03T13:41:00;0.70;;;0.52;;
75758;SDS011;64371;47.566;19.086;2023-04-03T13:47:23;0.70;;;0.50;;
75758;SDS011;64371;47.566;19.086;2023-04-03T13:50:27;1.40;;;1.00;;
75758;SDS011;64371;47.566;19.086;2023-04-03T13:53:31;1.00;;;0.73;;
75758;SDS011;64371;47.566;19.086;2023-04-03T13:56:36;13.18;;;2.78;;
75758;SDS011;64371;47.566;19.086;2023-04-03T13:59:40;0.93;;;0.43;;
75758;SDS011;64371;47.566;19.086;2023-04-03T14:02:46;0.95;;;0.68;;
75758;SDS011;64371;47.566;19.086;2023-04-03T14:05:50;1.00;;;0.60;;
75758;SDS011;64371;47.566;19.086;2023-04-03T14:08:53;1.15;;;0.80;;
75758;SDS011;64371;47.566;19.086;2023-04-03T14:11:57;1.00;;;0.63;;
75758;SDS011;64371;47.566;19.086;2023-04-03T14:15:18;2.10;;;0.80;;
75758;SDS011;64371;47.566;19.086;2023-04-03T14:18:24;1.42;;;0.68;;
75758;SDS011;64371;47.566;19.086;2023-04-03T14:21:30;0.68;;;0.50;;
75758;SDS011;64371;47.566;19.086;2023-04-03T14:24:32;1.25;;;0.70;;
75758;SDS011;64371;47.566;19.086;2023-04-03T14:27:36;2.83;;;0.70;;
75758;SDS011;64371;47.566;19.086;2023-04-03T14:30:43;3.93;;;0.97;;
75758;SDS011;64371;47.566;19.086;2023-04-03T14:33:46;1.30;;;0.73;;
75758;SDS011;64371;47.566;19.086;2023-04-03T14:36:49;1.55;;;0.82;;
75758;SDS011;64371;47.566;19.086;2023-04-03T14:39:54;1.67;;;0.90;;
75758;SDS011;64371;47.566;19.086;2023-04-03T14:42:58;1.30;;;0.85;;
75758;SDS011;64371;47.566;19.086;2023-04-03T14:46:01;3.27;;;0.77;;
75758;SDS011;64371;47.566;19.086;2023-04-03T14:49:05;2.35;;;0.93;;
75758;SDS011;64371;47.566;19.086;2023-04-03T14:52:23;1.52;;;0.70;;
75758;SDS011;64371;47.566;19.086;2023-04-03T14:55:28;2.25;;;1.10;;
75758;SDS011;64371;47.566;19.086;2023-04-03T14:58:31;2.58;;;1.15;;
75758;SDS011;64371;47.566;19.086;2023-04-03T15:01:34;1.83;;;0.80;;
75758;SDS011;64371;47.566;19.086;2023-04-03T15:04:36;1.13;;;0.60;;
75758;SDS011;64371;47.566;19.086;2023-04-03T15:07:40;2.25;;;1.10;;
75758;SDS011;64371;47.566;19.086;2023-04-03T15:10:44;2.40;;;0.95;;
75758;SDS011;64371;47.566;19.086;2023-04-03T15:13:47;2.08;;;0.70;;
75758;SDS011;64371;47.566;19.086;2023-04-03T15:16:49;1.47;;;0.70;;
75758;SDS011;64371;47.566;19.086;2023-04-03T15:19:51;1.70;;;0.88;;
75758;SDS011;64371;47.566;19.086;2023-04-03T15:22:54;1.40;;;0.77;;
75758;SDS011;64371;47.566;19.086;2023-04-03T15:25:58;1.27;;;0.80;;
75758;SDS011;64371;47.566;19.086;2023-04-03T15:29:01;1.15;;;0.73;;
75758;SDS011;64371;47.566;19.086;2023-04-03T15:32:03;1.33;;;0.77;;
75758;SDS011;64371;47.566;19.086;2023-04-03T15:35:06;1.25;;;0.73;;
75758;SDS011;64371;47.566;19.086;2023-04-03T15:38:09;1.58;;;0.70;;
75758;SDS011;64371;47.566;19.086;2023-04-03T15:41:12;1.35;;;0.80;;
75758;SDS011;64371;47.566;19.086;2023-04-03T15:44:14;5.78;;;2.30;;
75758;SDS011;64371;47.566;19.086;2023-04-03T15:47:19;4.10;;;2.00;;
75758;SDS011;64371;47.566;19.086;2023-04-03T15:50:22;2.22;;;1.10;;
75758;SDS011;64371;47.566;19.086;2023-04-03T15:53:26;2.33;;;1.13;;
75758;SDS011;64371;47.566;19.086;2023-04-03T15:56:28;1.67;;;0.90;;
75758;SDS011;64371;47.566;19.086;2023-04-03T15:59:30;1.65;;;0.90;;
75758;SDS011;64371;47.566;19.086;2023-04-03T16:02:33;2.43;;;1.40;;
75758;SDS011;64371;47.566;19.086;2023-04-03T16:05:37;2.72;;;1.70;;
75758;SDS011;64371;47.566;19.086;2023-04-03T16:08:40;2.42;;;1.08;;
75758;SDS011;64371;47.566;19.086;2023-04-03T16:11:43;2.17;;;1.20;;
75758;SDS011;64371;47.566;19.086;2023-04-03T16:14:45;2.30;;;0.90;;
75758;SDS011;64371;47.566;19.086;2023-04-03T16:17:48;4.17;;;0.90;;
75758;SDS011;64371;47.566;19.086;2023-04-03T16:20:50;3.33;;;1.17;;
75758;SDS011;64371;47.566;19.086;2023-04-03T16:23:52;2.67;;;1.23;;
75758;SDS011;64371;47.566;19.086;2023-04-03T16:26:55;2.67;;;0.88;;
75758;SDS011;64371;47.566;19.086;2023-04-03T16:30:00;3.47;;;1.25;;
75758;SDS011;64371;47.566;19.086;2023-04-03T16:33:03;1.23;;;0.80;;
75758;SDS011;64371;47.566;19.086;2023-04-03T16:36:06;3.92;;;2.10;;
75758;SDS011;64371;47.566;19.086;2023-04-03T16:39:08;2.72;;;1.70;;
75758;SDS011;64371;47.566;19.086;2023-04-03T16:42:14;2.92;;;1.40;;
75758;SDS011;64371;47.566;19.086;2023-04-03T16:45:17;2.70;;;1.42;;
75758;SDS011;64371;47.566;19.086;2023-04-03T16:48:19;2.40;;;1.50;;
75758;SDS011;64371;47.566;19.086;2023-04-03T16:51:22;2.95;;;1.38;;
75758;SDS011;64371;47.566;19.086;2023-04-03T16:54:24;2.55;;;1.17;;
75758;SDS011;64371;47.566;19.086;2023-04-03T16:57:27;2.67;;;1.20;;
75758;SDS011;64371;47.566;19.086;2023-04-03T17:00:32;3.15;;;1.20;;
75758;SDS011;64371;47.566;19.086;2023-04-03T17:03:35;2.93;;;1.60;;
75758;SDS011;64371;47.566;19.086;2023-04-03T17:06:38;2.33;;;1.38;;
75758;SDS011;64371;47.566;19.086;2023-04-03T17:09:41;4.18;;;1.63;;
75758;SDS011;64371;47.566;19.086;2023-04-03T17:12:43;3.60;;;1.70;;
75758;SDS011;64371;47.566;19.086;2023-04-03T17:15:45;4.60;;;1.80;;
75758;SDS011;64371;47.566;19.086;2023-04-03T17:18:48;3.83;;;1.93;;
75758;SDS011;64371;47.566;19.086;2023-04-03T17:21:51;2.60;;;1.33;;
75758;SDS011;64371;47.566;19.086;2023-04-03T17:24:53;2.40;;;1.42;;
75758;SDS011;64371;47.566;19.086;2023-04-03T17:27:56;2.95;;;1.40;;
75758;SDS011;64371;47.566;19.086;2023-04-03T17:30:59;1.65;;;1.00;;
75758;SDS011;64371;47.566;19.086;2023-04-03T17:34:02;2.60;;;1.30;;
75758;SDS011;64371;47.566;19.086;2023-04-03T17:37:05;2.40;;;1.48;;
75758;SDS011;64371;47.566;19.086;2023-04-03T17:40:08;3.47;;;1.83;;
75758;SDS011;64371;47.566;19.086;2023-04-03T17:43:10;3.88;;;1.40;;
75758;SDS011;64371;47.566;19.086;2023-04-03T17:46:13;2.10;;;0.93;;
75758;SDS011;64371;47.566;19.086;2023-04-03T17:49:17;1.77;;;1.10;;
75758;SDS011;64371;47.566;19.086;2023-04-03T17:52:27;1.98;;;1.20;;
75758;SDS011;64371;47.566;19.086;2023-04-03T17:55:30;1.40;;;1.17;;
75758;SDS011;64371;47.566;19.086;2023-04-03T17:58:32;1.92;;;1.10;;
75758;SDS011;64371;47.566;19.086;2023-04-03T18:01:34;1.95;;;1.10;;
75758;SDS011;64371;47.566;19.086;2023-04-03T18:04:37;3.60;;;1.10;;
75758;SDS011;64371;47.566;19.086;2023-04-03T18:07:40;2.60;;;0.85;;
75758;SDS011;64371;47.566;19.086;2023-04-03T18:10:42;2.42;;;1.40;;
75758;SDS011;64371;47.566;19.086;2023-04-03T18:13:44;2.55;;;1.33;;
75758;SDS011;64371;47.566;19.086;2023-04-03T18:16:47;3.92;;;1.20;;
75758;SDS011;64371;47.566;19.086;2023-04-03T18:19:50;2.23;;;1.07;;
75758;SDS011;64371;47.566;19.086;2023-04-03T18:22:52;3.55;;;1.48;;
75758;SDS011;64371;47.566;19.086;2023-04-03T18:25:55;1.67;;;1.10;;
75758;SDS011;64371;47.566;19.086;2023-04-03T18:28:59;2.20;;;1.13;;
75758;SDS011;64371;47.566;19.086;2023-04-03T18:32:03;2.42;;;1.48;;
75758;SDS011;64371;47.566;19.086;2023-04-03T18:35:08;2.47;;;1.20;;
75758;SDS011;64371;47.566;19.086;2023-04-03T18:38:11;3.78;;;1.50;;
75758;SDS011;64371;47.566;19.086;2023-04-03T18:41:13;2.78;;;1.05;;
75758;SDS011;64371;47.566;19.086;2023-04-03T18:44:20;3.03;;;1.40;;
75758;SDS011;64371;47.566;19.086;2023-04-03T18:47:26;3.15;;;1.55;;
75758;SDS011;64371;47.566;19.086;2023-04-03T18:50:29;2.57;;;1.70;;
75758;SDS011;64371;47.566;19.086;2023-04-03T18:53:32;3.75;;;1.80;;
75758;SDS011;64371;47.566;19.086;2023-04-03T18:56:35;2.35;;;1.30;;
75758;SDS011;64371;47.566;19.086;2023-04-03T18:59:37;2.03;;;1.33;;
75758;SDS011;64371;47.566;19.086;2023-04-03T19:02:40;3.38;;;1.55;;
75758;SDS011;64371;47.566;19.086;2023-04-03T19:05:42;2.43;;;1.20;;
75758;SDS011;64371;47.566;19.086;2023-04-03T19:08:45;3.05;;;1.73;;
75758;SDS011;64371;47.566;19.086;2023-04-03T19:11:49;2.67;;;1.50;;
75758;SDS011;64371;47.566;19.086;2023-04-03T19:14:51;2.78;;;1.35;;
75758;SDS011;64371;47.566;19.086;2023-04-03T19:17:54;3.75;;;1.80;;
75758;SDS011;64371;47.566;19.086;2023-04-03T19:20:56;1.83;;;1.20;;